sensor_id;sensor_type;location;lat;lon;timestamp;pressure;altitude;pressure_sealevel;temperature;humidity
62976;BME280;49071;0.000;0.000;2023-06-10T05:34:37;101022.53;;;23.96;46.04
62976;BME280;49071;0.000;0.000;2023-06-10T05:37:37;101013.00;;;23.92;46.38
62976;BME280;49071;0.000;0.000;2023-06-10T05:40:37;101014.91;;;23.90;46.43
62976;BME280;49071;0.000;0.000;2023-06-10T05:43:37;101019.19;;;23.93;46.44
62976;BME280;49071;0.000;0.000;2023-06-10T05:46:38;101017.19;;;23.96;46.22
62976;BME280;49071;0.000;0.000;2023-06-10T05:49:38;101018.22;;;23.94;46.63
62976;BME280;49071;0.000;0.000;2023-06-10T05:52:38;101010.50;;;23.89;46.54
62976;BME280;49071;0.000;0.000;2023-06-10T05:55:41;101017.47;;;23.92;46.95
62976;BME280;49071;0.000;0.000;2023-06-10T05:58:42;101015.78;;;23.91;46.95
62976;BME280;49071;0.000;0.000;2023-06-10T06:01:42;101020.47;;;23.87;47.29
62976;BME280;49071;0.000;0.000;2023-06-10T06:04:42;101023.56;;;23.94;47.03
62976;BME280;49071;0.000;0.000;2023-06-10T06:07:42;101030.84;;;23.92;47.14
62976;BME280;49071;0.000;0.000;2023-06-10T06:10:43;101023.88;;;23.89;47.29
62976;BME280;49071;0.000;0.000;2023-06-10T06:13:43;101040.69;;;23.91;47.19
62976;BME280;49071;0.000;0.000;2023-06-10T06:16:43;101036.81;;;23.95;47.39
62976;BME280;49071;0.000;0.000;2023-06-10T06:19:43;101035.88;;;23.96;47.30
62976;BME280;49071;0.000;0.000;2023-06-10T06:22:43;101038.63;;;23.95;47.56
62976;BME280;49071;0.000;0.000;2023-06-10T06:25:44;101042.59;;;24.02;47.22
62976;BME280;49071;0.000;0.000;2023-06-10T06:28:44;101046.47;;;24.10;46.89
62976;BME280;49071;0.000;0.000;2023-06-10T06:31:44;101041.53;;;24.17;46.69
62976;BME280;49071;0.000;0.000;2023-06-10T06:34:45;101050.44;;;24.18;46.59
62976;BME280;49071;0.000;0.000;2023-06-10T06:37:45;101057.69;;;24.16;46.85
62976;BME280;49071;0.000;0.000;2023-06-10T06:40:45;101054.91;;;24.17;46.83
62976;BME280;49071;0.000;0.000;2023-06-10T06:43:45;101067.34;;;24.18;46.87
62976;BME280;49071;0.000;0.000;2023-06-10T06:46:45;101065.28;;;24.22;47.02
62976;BME280;49071;0.000;0.000;2023-06-10T06:49:46;101060.91;;;24.21;46.71
62976;BME280;49071;0.000;0.000;2023-06-10T06:52:46;101073.31;;;24.22;46.86
62976;BME280;49071;0.000;0.000;2023-06-10T06:55:46;101081.03;;;24.26;46.48
62976;BME280;49071;0.000;0.000;2023-06-10T06:58:46;101080.38;;;24.23;46.91
62976;BME280;49071;0.000;0.000;2023-06-10T07:01:47;101081.13;;;24.25;46.91
62976;BME280;49071;0.000;0.000;2023-06-10T07:04:47;101087.00;;;24.30;46.87
62976;BME280;49071;0.000;0.000;2023-06-10T07:07:49;101091.38;;;24.31;45.58
62976;BME280;49071;0.000;0.000;2023-06-10T07:10:54;101093.19;;;24.30;45.29
62976;BME280;49071;0.000;0.000;2023-06-10T07:13:54;101094.75;;;24.34;44.44
62976;BME280;49071;0.000;0.000;2023-06-10T07:16:55;101095.78;;;24.32;44.54
62976;BME280;49071;0.000;0.000;2023-06-10T07:19:55;101095.78;;;24.32;44.10
62976;BME280;49071;0.000;0.000;2023-06-10T07:22:57;101087.41;;;24.24;44.27
62976;BME280;49071;0.000;0.000;2023-06-10T07:25:57;101087.53;;;24.22;44.21
62976;BME280;49071;0.000;0.000;2023-06-10T07:28:58;101093.72;;;24.23;43.83
62976;BME280;49071;0.000;0.000;2023-06-10T07:31:58;101101.53;;;24.13;43.96
62976;BME280;49071;0.000;0.000;2023-06-10T07:34:58;101099.19;;;24.21;43.57
62976;BME280;49071;0.000;0.000;2023-06-10T07:37:58;101098.78;;;24.27;43.65
62976;BME280;49071;0.000;0.000;2023-06-10T07:40:58;101095.00;;;24.30;43.74
62976;BME280;49071;0.000;0.000;2023-06-10T07:43:59;101095.25;;;24.27;43.17
62976;BME280;49071;0.000;0.000;2023-06-10T07:46:59;101100.91;;;24.22;42.70
62976;BME280;49071;0.000;0.000;2023-06-10T07:50:00;101104.44;;;24.23;42.59
62976;BME280;49071;0.000;0.000;2023-06-10T07:53:00;101098.03;;;24.25;42.57
62976;BME280;49071;0.000;0.000;2023-06-10T07:56:00;101096.41;;;24.23;42.26
62976;BME280;49071;0.000;0.000;2023-06-10T07:59:00;101100.03;;;24.22;42.62
62976;BME280;49071;0.000;0.000;2023-06-10T08:02:01;101097.19;;;24.25;42.36
62976;BME280;49071;0.000;0.000;2023-06-10T08:05:01;101091.28;;;24.32;42.23
62976;BME280;49071;0.000;0.000;2023-06-10T08:08:01;101090.25;;;24.35;42.80
62976;BME280;49071;0.000;0.000;2023-06-10T08:11:01;101088.31;;;24.37;42.73
62976;BME280;49071;0.000;0.000;2023-06-10T08:14:01;101090.91;;;24.38;43.12
62976;BME280;49071;0.000;0.000;2023-06-10T08:17:02;101091.75;;;24.39;44.23
62976;BME280;49071;0.000;0.000;2023-06-10T08:20:05;101093.34;;;24.42;44.71
62976;BME280;49071;0.000;0.000;2023-06-10T08:23:05;101102.88;;;24.46;43.94
62976;BME280;49071;0.000;0.000;2023-06-10T08:26:06;101106.28;;;24.48;44.57
62976;BME280;49071;0.000;0.000;2023-06-10T08:29:06;101103.50;;;24.49;43.62
62976;BME280;49071;0.000;0.000;2023-06-10T08:32:06;101106.91;;;24.51;43.52
62976;BME280;49071;0.000;0.000;2023-06-10T08:35:06;101108.63;;;24.52;43.53
62976;BME280;49071;0.000;0.000;2023-06-10T08:38:07;101109.50;;;24.53;43.59
62976;BME280;49071;0.000;0.000;2023-06-10T08:41:07;101108.44;;;24.55;43.55
62976;BME280;49071;0.000;0.000;2023-06-10T08:44:12;101105.63;;;24.57;43.35
62976;BME280;49071;0.000;0.000;2023-06-10T08:47:14;101106.50;;;24.57;43.50
62976;BME280;49071;0.000;0.000;2023-06-10T08:50:15;101104.56;;;24.59;44.25
62976;BME280;49071;0.000;0.000;2023-06-10T08:53:17;101106.28;;;24.60;44.70
62976;BME280;49071;0.000;0.000;2023-06-10T08:56:18;101113.13;;;24.64;43.18
62976;BME280;49071;0.000;0.000;2023-06-10T08:59:18;101115.69;;;24.66;43.40
62976;BME280;49071;0.000;0.000;2023-06-10T09:02:20;101111.19;;;24.66;43.96
62976;BME280;49071;0.000;0.000;2023-06-10T09:05:20;101120.19;;;24.65;43.95
62976;BME280;49071;0.000;0.000;2023-06-10T09:08:20;101117.31;;;24.69;43.26
62976;BME280;49071;0.000;0.000;2023-06-10T09:11:21;101120.84;;;24.69;43.52
62976;BME280;49071;0.000;0.000;2023-06-10T09:14:21;101109.28;;;24.69;43.74
62976;BME280;49071;0.000;0.000;2023-06-10T09:17:21;101117.31;;;24.69;42.86
62976;BME280;49071;0.000;0.000;2023-06-10T09:20:23;101125.22;;;24.70;42.84
62976;BME280;49071;0.000;0.000;2023-06-10T09:23:23;101125.09;;;24.72;42.63
62976;BME280;49071;0.000;0.000;2023-06-10T09:26:27;101117.81;;;24.74;42.47
62976;BME280;49071;0.000;0.000;2023-06-10T09:29:28;101124.78;;;24.76;42.18
62976;BME280;49071;0.000;0.000;2023-06-10T09:32:28;101123.94;;;24.76;42.61
62976;BME280;49071;0.000;0.000;2023-06-10T09:35:30;101124.91;;;24.75;42.95
62976;BME280;49071;0.000;0.000;2023-06-10T09:38:31;101127.56;;;24.75;42.50
62976;BME280;49071;0.000;0.000;2023-06-10T09:41:35;101125.75;;;24.75;42.08
62976;BME280;49071;0.000;0.000;2023-06-10T09:44:35;101127.47;;;24.76;43.01
62976;BME280;49071;0.000;0.000;2023-06-10T09:47:36;101113.97;;;24.78;42.58
62976;BME280;49071;0.000;0.000;2023-06-10T09:50:45;101126.50;;;24.77;42.89
62976;BME280;49071;0.000;0.000;2023-06-10T09:53:50;101122.84;;;24.78;42.07
62976;BME280;49071;0.000;0.000;2023-06-10T09:56:51;101128.00;;;24.81;42.26
62976;BME280;49071;0.000;0.000;2023-06-10T09:59:52;101133.34;;;24.81;42.17
62976;BME280;49071;0.000;0.000;2023-06-10T10:02:53;101133.25;;;24.83;42.85
62976;BME280;49071;0.000;0.000;2023-06-10T10:06:00;101135.06;;;24.82;43.80
62976;BME280;49071;0.000;0.000;2023-06-10T10:09:00;101134.28;;;24.80;43.41
62976;BME280;49071;0.000;0.000;2023-06-10T10:12:01;101128.84;;;24.82;42.64
62976;BME280;49071;0.000;0.000;2023-06-10T10:15:02;101131.19;;;24.86;42.80
62976;BME280;49071;0.000;0.000;2023-06-10T10:21:07;101131.09;;;24.88;43.02
62976;BME280;49071;0.000;0.000;2023-06-10T10:24:23;101124.97;;;24.86;42.94
62976;BME280;49071;0.000;0.000;2023-06-10T10:27:47;101127.66;;;24.86;42.94
62976;BME280;49071;0.000;0.000;2023-06-10T10:30:52;101120.38;;;24.88;42.96
62976;BME280;49071;0.000;0.000;2023-06-10T10:33:59;101115.88;;;24.88;43.01
62976;BME280;49071;0.000;0.000;2023-06-10T10:36:59;101112.34;;;24.88;43.06
62976;BME280;49071;0.000;0.000;2023-06-10T10:40:00;101115.03;;;24.88;43.39
62976;BME280;49071;0.000;0.000;2023-06-10T10:43:01;101115.13;;;24.86;43.62
62976;BME280;49071;0.000;0.000;2023-06-10T10:46:02;101117.81;;;24.86;43.17
62976;BME280;49071;0.000;0.000;2023-06-10T10:49:06;101118.66;;;24.87;43.06
62976;BME280;49071;0.000;0.000;2023-06-10T10:52:10;101111.47;;;24.87;43.37
62976;BME280;49071;0.000;0.000;2023-06-10T10:55:12;101112.34;;;24.88;43.05
62976;BME280;49071;0.000;0.000;2023-06-10T10:58:12;101120.38;;;24.88;43.02
62976;BME280;49071;0.000;0.000;2023-06-10T11:01:13;101111.38;;;24.89;43.06
62976;BME280;49071;0.000;0.000;2023-06-10T11:04:17;101106.13;;;24.87;43.02
62976;BME280;49071;0.000;0.000;2023-06-10T11:07:19;101110.53;;;24.88;43.37
62976;BME280;49071;0.000;0.000;2023-06-10T11:10:33;101108.72;;;24.89;43.60
62976;BME280;49071;0.000;0.000;2023-06-10T11:13:34;101108.72;;;24.89;43.33
62976;BME280;49071;0.000;0.000;2023-06-10T11:16:41;101109.69;;;24.88;43.65
62976;BME280;49071;0.000;0.000;2023-06-10T11:19:43;101105.19;;;24.88;43.22
62976;BME280;49071;0.000;0.000;2023-06-10T11:22:58;101110.53;;;24.88;43.13
62976;BME280;49071;0.000;0.000;2023-06-10T11:29:17;101099.72;;;24.90;43.48
62976;BME280;49071;0.000;0.000;2023-06-10T11:32:19;101103.34;;;24.89;43.04
62976;BME280;49071;0.000;0.000;2023-06-10T11:35:19;101106.03;;;24.89;43.49
62976;BME280;49071;0.000;0.000;2023-06-10T11:38:21;101104.22;;;24.89;43.20
62976;BME280;49071;0.000;0.000;2023-06-10T11:41:21;101107.50;;;24.93;43.12
62976;BME280;49071;0.000;0.000;2023-06-10T11:44:21;101094.13;;;24.93;43.02
62976;BME280;49071;0.000;0.000;2023-06-10T11:47:21;101093.38;;;24.91;44.68
62976;BME280;49071;0.000;0.000;2023-06-10T11:50:29;101097.88;;;24.90;43.97
62976;BME280;49071;0.000;0.000;2023-06-10T11:53:29;101091.69;;;24.90;43.24
62976;BME280;49071;0.000;0.000;2023-06-10T11:56:30;101087.19;;;24.90;43.11
62976;BME280;49071;0.000;0.000;2023-06-10T11:59:30;101090.72;;;24.91;42.97
62976;BME280;49071;0.000;0.000;2023-06-10T12:02:31;101090.72;;;24.91;42.82
62976;BME280;49071;0.000;0.000;2023-06-10T12:05:31;101082.69;;;24.91;43.00
62976;BME280;49071;0.000;0.000;2023-06-10T12:08:31;101088.88;;;24.91;43.11
62976;BME280;49071;0.000;0.000;2023-06-10T12:11:32;101082.69;;;24.91;42.97
62976;BME280;49071;0.000;0.000;2023-06-10T12:17:53;101083.53;;;24.91;43.04
62976;BME280;49071;0.000;0.000;2023-06-10T12:20:53;101078.19;;;24.91;43.01
62976;BME280;49071;0.000;0.000;2023-06-10T12:24:03;101071.00;;;24.92;43.05
62976;BME280;49071;0.000;0.000;2023-06-10T12:27:04;101060.28;;;24.92;43.04
62976;BME280;49071;0.000;0.000;2023-06-10T12:30:05;101062.00;;;24.93;42.72
62976;BME280;49071;0.000;0.000;2023-06-10T12:33:08;101062.84;;;24.93;42.85
62976;BME280;49071;0.000;0.000;2023-06-10T12:36:16;101057.63;;;24.92;42.83
62976;BME280;49071;0.000;0.000;2023-06-10T12:39:17;101053.97;;;24.93;42.96
62976;BME280;49071;0.000;0.000;2023-06-10T12:42:17;101045.06;;;24.92;42.89
62976;BME280;49071;0.000;0.000;2023-06-10T12:45:34;101038.75;;;24.93;42.99
62976;BME280;49071;0.000;0.000;2023-06-10T12:48:35;101038.88;;;24.92;43.00
62976;BME280;49071;0.000;0.000;2023-06-10T12:51:35;101033.50;;;24.92;42.84
62976;BME280;49071;0.000;0.000;2023-06-10T12:54:37;101029.88;;;24.93;42.84
62976;BME280;49071;0.000;0.000;2023-06-10T12:57:37;101032.53;;;24.93;42.87
62976;BME280;49071;0.000;0.000;2023-06-10T13:00:37;101036.19;;;24.92;42.88
62976;BME280;49071;0.000;0.000;2023-06-10T13:03:38;101035.22;;;24.93;43.13
62976;BME280;49071;0.000;0.000;2023-06-10T13:06:39;101021.84;;;24.93;43.01
62976;BME280;49071;0.000;0.000;2023-06-10T13:09:39;101029.88;;;24.93;42.76
62976;BME280;49071;0.000;0.000;2023-06-10T13:12:39;101025.38;;;24.93;42.74
62976;BME280;49071;0.000;0.000;2023-06-10T13:15:41;101022.69;;;24.93;42.96
62976;BME280;49071;0.000;0.000;2023-06-10T13:18:41;101021.84;;;24.93;42.69
62976;BME280;49071;0.000;0.000;2023-06-10T13:21:41;101017.34;;;24.93;42.84
62976;BME280;49071;0.000;0.000;2023-06-10T13:24:41;101026.22;;;24.94;42.71
62976;BME280;49071;0.000;0.000;2023-06-10T13:27:43;101021.72;;;24.94;42.79
62976;BME280;49071;0.000;0.000;2023-06-10T13:30:44;101013.69;;;24.94;43.04
62976;BME280;49071;0.000;0.000;2023-06-10T13:33:44;101015.50;;;24.94;42.57
62976;BME280;49071;0.000;0.000;2023-06-10T13:36:44;101011.00;;;24.94;42.82
62976;BME280;49071;0.000;0.000;2023-06-10T13:39:45;101017.25;;;24.95;42.71
62976;BME280;49071;0.000;0.000;2023-06-10T13:42:47;101013.69;;;24.94;42.72
62976;BME280;49071;0.000;0.000;2023-06-10T13:45:50;101011.88;;;24.95;42.63
62976;BME280;49071;0.000;0.000;2023-06-10T13:48:50;101007.38;;;24.96;42.64
62976;BME280;49071;0.000;0.000;2023-06-10T13:51:51;101003.84;;;24.95;42.82
62976;BME280;49071;0.000;0.000;2023-06-10T13:54:51;101009.22;;;24.95;43.02
62976;BME280;49071;0.000;0.000;2023-06-10T13:57:51;101003.63;;;24.98;42.51
62976;BME280;49071;0.000;0.000;2023-06-10T14:00:51;101008.00;;;24.99;43.30
62976;BME280;49071;0.000;0.000;2023-06-10T14:03:51;101005.31;;;24.99;43.61
62976;BME280;49071;0.000;0.000;2023-06-10T14:06:52;101014.34;;;24.98;43.53
62976;BME280;49071;0.000;0.000;2023-06-10T14:09:52;101017.84;;;24.99;43.43
62976;BME280;49071;0.000;0.000;2023-06-10T14:12:52;101005.44;;;24.98;43.27
62976;BME280;49071;0.000;0.000;2023-06-10T14:15:53;101008.13;;;24.98;43.14
62976;BME280;49071;0.000;0.000;2023-06-10T14:18:53;101006.31;;;24.98;43.10
62976;BME280;49071;0.000;0.000;2023-06-10T14:21:54;101000.94;;;24.98;42.81
62976;BME280;49071;0.000;0.000;2023-06-10T14:24:55;101007.16;;;24.99;42.80
62976;BME280;49071;0.000;0.000;2023-06-10T14:27:55;101011.53;;;25.00;42.78
62976;BME280;49071;0.000;0.000;2023-06-10T14:30:55;101014.22;;;25.00;42.95
62976;BME280;49071;0.000;0.000;2023-06-10T14:33:57;101020.41;;;25.00;42.83
62976;BME280;49071;0.000;0.000;2023-06-10T14:36:57;101012.38;;;25.00;42.49
62976;BME280;49071;0.000;0.000;2023-06-10T14:39:57;101017.75;;;25.00;42.72
62976;BME280;49071;0.000;0.000;2023-06-10T14:42:58;101017.63;;;25.02;42.43
62976;BME280;49071;0.000;0.000;2023-06-10T14:46:00;101013.06;;;25.04;42.22
62976;BME280;49071;0.000;0.000;2023-06-10T14:49:00;101017.63;;;25.02;43.11
62976;BME280;49071;0.000;0.000;2023-06-10T14:52:02;101015.91;;;25.01;42.74
62976;BME280;49071;0.000;0.000;2023-06-10T14:55:02;101011.41;;;25.01;42.68
62976;BME280;49071;0.000;0.000;2023-06-10T14:58:03;101019.44;;;25.01;42.54
62976;BME280;49071;0.000;0.000;2023-06-10T15:01:03;101003.38;;;25.01;42.76
62976;BME280;49071;0.000;0.000;2023-06-10T15:04:03;101006.06;;;25.01;42.75
62976;BME280;49071;0.000;0.000;2023-06-10T15:07:03;101007.88;;;25.01;42.66
62976;BME280;49071;0.000;0.000;2023-06-10T15:10:04;101008.72;;;25.01;42.61
62976;BME280;49071;0.000;0.000;2023-06-10T15:13:04;101003.38;;;25.01;42.49
62976;BME280;49071;0.000;0.000;2023-06-10T15:16:05;101003.38;;;25.01;42.39
62976;BME280;49071;0.000;0.000;2023-06-10T15:19:06;101005.13;;;25.02;42.49
62976;BME280;49071;0.000;0.000;2023-06-10T15:22:08;101002.44;;;25.02;42.61
62976;BME280;49071;0.000;0.000;2023-06-10T15:25:08;101007.78;;;25.02;42.60
62976;BME280;49071;0.000;0.000;2023-06-10T15:28:08;101002.44;;;25.02;42.62
62976;BME280;49071;0.000;0.000;2023-06-10T15:31:08;100999.75;;;25.02;42.74
62976;BME280;49071;0.000;0.000;2023-06-10T15:34:09;101008.66;;;25.03;42.52
62976;BME280;49071;0.000;0.000;2023-06-10T15:37:09;101005.13;;;25.02;42.61
62976;BME280;49071;0.000;0.000;2023-06-10T15:40:09;101009.50;;;25.03;42.60
62976;BME280;49071;0.000;0.000;2023-06-10T15:43:09;101011.31;;;25.03;42.82
62976;BME280;49071;0.000;0.000;2023-06-10T15:46:09;101012.94;;;25.05;42.56
62976;BME280;49071;0.000;0.000;2023-06-10T15:49:11;101004.06;;;25.05;42.53
62976;BME280;49071;0.000;0.000;2023-06-10T15:52:11;101008.56;;;25.04;42.72
62976;BME280;49071;0.000;0.000;2023-06-10T15:55:11;101003.81;;;25.08;42.40
62976;BME280;49071;0.000;0.000;2023-06-10T15:58:11;101001.13;;;25.08;42.52
62976;BME280;49071;0.000;0.000;2023-06-10T16:01:12;100997.41;;;25.10;42.41
62976;BME280;49071;0.000;0.000;2023-06-10T16:04:12;101001.66;;;25.13;42.33
62976;BME280;49071;0.000;0.000;2023-06-10T16:07:12;100996.19;;;25.14;42.40
62976;BME280;49071;0.000;0.000;2023-06-10T16:10:12;101009.44;;;25.16;42.49
62976;BME280;49071;0.000;0.000;2023-06-10T16:13:12;101001.53;;;25.14;43.03
62976;BME280;49071;0.000;0.000;2023-06-10T16:16:13;101008.50;;;25.17;42.58
62976;BME280;49071;0.000;0.000;2023-06-10T16:19:13;101003.88;;;25.19;42.50
62976;BME280;49071;0.000;0.000;2023-06-10T16:22:13;101003.75;;;25.20;42.51
62976;BME280;49071;0.000;0.000;2023-06-10T16:25:14;101003.75;;;25.20;42.39
62976;BME280;49071;0.000;0.000;2023-06-10T16:28:14;101010.22;;;25.18;43.67
62976;BME280;49071;0.000;0.000;2023-06-10T16:31:14;101006.31;;;25.22;42.42
62976;BME280;49071;0.000;0.000;2023-06-10T16:34:14;101009.84;;;25.23;42.87
62976;BME280;49071;0.000;0.000;2023-06-10T16:37:15;101007.16;;;25.23;42.62
62976;BME280;49071;0.000;0.000;2023-06-10T16:40:15;101012.06;;;25.29;42.76
62976;BME280;49071;0.000;0.000;2023-06-10T16:43:16;101010.16;;;25.31;42.73
62976;BME280;49071;0.000;0.000;2023-06-10T16:46:16;101012.59;;;25.34;42.87
62976;BME280;49071;0.000;0.000;2023-06-10T16:49:16;101016.00;;;25.36;42.84
62976;BME280;49071;0.000;0.000;2023-06-10T16:52:16;101022.09;;;25.38;42.92
62976;BME280;49071;0.000;0.000;2023-06-10T16:55:16;101013.94;;;25.39;42.84
62976;BME280;49071;0.000;0.000;2023-06-10T16:58:17;101022.00;;;25.39;42.95
62976;BME280;49071;0.000;0.000;2023-06-10T17:01:17;101025.28;;;25.43;42.99
62976;BME280;49071;0.000;0.000;2023-06-10T17:04:17;101020.78;;;25.43;42.99
62976;BME280;49071;0.000;0.000;2023-06-10T17:07:17;101020.69;;;25.45;42.87
62976;BME280;49071;0.000;0.000;2023-06-10T17:10:18;101020.56;;;25.46;42.96
62976;BME280;49071;0.000;0.000;2023-06-10T17:13:18;101024.09;;;25.47;43.06
62976;BME280;49071;0.000;0.000;2023-06-10T17:16:18;101026.53;;;25.50;43.01
62976;BME280;49071;0.000;0.000;2023-06-10T17:19:18;101031.88;;;25.50;43.01
62976;BME280;49071;0.000;0.000;2023-06-10T17:22:18;101025.66;;;25.50;43.09
62976;BME280;49071;0.000;0.000;2023-06-10T17:25:19;101031.78;;;25.52;43.02
62976;BME280;49071;0.000;0.000;2023-06-10T17:28:19;101035.31;;;25.52;43.04
62976;BME280;49071;0.000;0.000;2023-06-10T17:31:19;101037.38;;;25.48;42.91
62976;BME280;49071;0.000;0.000;2023-06-10T17:34:19;101038.22;;;25.49;43.05
62976;BME280;49071;0.000;0.000;2023-06-10T17:37:19;101043.34;;;25.52;42.88
62976;BME280;49071;0.000;0.000;2023-06-10T17:40:20;101048.59;;;25.54;43.02
62976;BME280;49071;0.000;0.000;2023-06-10T17:43:20;101048.59;;;25.54;43.08
62976;BME280;49071;0.000;0.000;2023-06-10T17:46:20;101051.16;;;25.55;42.84
62976;BME280;49071;0.000;0.000;2023-06-10T17:49:20;101059.19;;;25.55;42.89
62976;BME280;49071;0.000;0.000;2023-06-10T17:52:23;101053.59;;;25.58;42.96
62976;BME280;49071;0.000;0.000;2023-06-10T17:55:24;101052.72;;;25.58;43.05
62976;BME280;49071;0.000;0.000;2023-06-10T17:58:24;101058.00;;;25.59;41.58
62976;BME280;49071;0.000;0.000;2023-06-10T18:01:24;101058.00;;;25.59;39.96
62976;BME280;49071;0.000;0.000;2023-06-10T18:04:24;101062.59;;;25.57;41.19
62976;BME280;49071;0.000;0.000;2023-06-10T18:07:25;101060.16;;;25.54;41.37
62976;BME280;49071;0.000;0.000;2023-06-10T18:10:25;101060.16;;;25.54;41.07
62976;BME280;49071;0.000;0.000;2023-06-10T18:13:25;101065.53;;;25.54;41.38
62976;BME280;49071;0.000;0.000;2023-06-10T18:16:26;101063.56;;;25.56;41.59
62976;BME280;49071;0.000;0.000;2023-06-10T18:19:28;101067.97;;;25.57;41.32
62976;BME280;49071;0.000;0.000;2023-06-10T18:22:28;101075.78;;;25.60;41.03
62976;BME280;49071;0.000;0.000;2023-06-10T18:25:29;101076.84;;;25.58;41.26
62976;BME280;49071;0.000;0.000;2023-06-10T18:28:29;101093.78;;;25.58;40.30
62976;BME280;49071;0.000;0.000;2023-06-10T18:31:30;101093.78;;;25.58;40.92
62976;BME280;49071;0.000;0.000;2023-06-10T18:34:30;101095.53;;;25.59;40.44
62976;BME280;49071;0.000;0.000;2023-06-10T18:37:30;101103.56;;;25.59;40.05
62976;BME280;49071;0.000;0.000;2023-06-10T18:40:30;101100.03;;;25.59;40.54
62976;BME280;49071;0.000;0.000;2023-06-10T18:43:30;101107.09;;;25.60;40.13
62976;BME280;49071;0.000;0.000;2023-06-10T18:46:31;101109.88;;;25.58;38.40
62976;BME280;49071;0.000;0.000;2023-06-10T18:49:31;101106.25;;;25.59;40.50
62976;BME280;49071;0.000;0.000;2023-06-10T18:52:31;101114.28;;;25.59;40.37
62976;BME280;49071;0.000;0.000;2023-06-10T18:55:31;101120.50;;;25.60;38.08
62976;BME280;49071;0.000;0.000;2023-06-10T18:58:35;101122.31;;;25.59;40.23
62976;BME280;49071;0.000;0.000;2023-06-10T19:01:36;101124.16;;;25.59;40.09
62976;BME280;49071;0.000;0.000;2023-06-10T19:04:36;101130.34;;;25.59;39.74
62976;BME280;49071;0.000;0.000;2023-06-10T19:07:36;101137.44;;;25.60;40.19
62976;BME280;49071;0.000;0.000;2023-06-10T19:10:36;101141.09;;;25.59;40.12
62976;BME280;49071;0.000;0.000;2023-06-10T19:13:36;101142.78;;;25.60;40.28
62976;BME280;49071;0.000;0.000;2023-06-10T19:16:36;101144.63;;;25.60;39.21
62976;BME280;49071;0.000;0.000;2023-06-10T19:19:37;101159.19;;;25.56;37.68
62976;BME280;49071;0.000;0.000;2023-06-10T19:22:37;101164.78;;;25.53;37.04
62976;BME280;49071;0.000;0.000;2023-06-10T19:25:37;101163.19;;;25.50;37.69
62976;BME280;49071;0.000;0.000;2023-06-10T19:28:37;101176.56;;;25.50;39.06
62976;BME280;49071;0.000;0.000;2023-06-10T19:31:37;101176.69;;;25.48;37.28
62976;BME280;49071;0.000;0.000;2023-06-10T19:34:37;101181.19;;;25.48;37.09
62976;BME280;49071;0.000;0.000;2023-06-10T19:37:38;101187.75;;;25.44;37.24
62976;BME280;49071;0.000;0.000;2023-06-10T19:40:38;101189.06;;;25.38;36.13
62976;BME280;49071;0.000;0.000;2023-06-10T19:43:38;101200.66;;;25.39;35.40
62976;BME280;49071;0.000;0.000;2023-06-10T19:46:38;101203.19;;;25.40;35.94
62976;BME280;49071;0.000;0.000;2023-06-10T19:49:40;101203.09;;;25.42;37.06
62976;BME280;49071;0.000;0.000;2023-06-10T19:52:40;101202.22;;;25.41;35.86
62976;BME280;49071;0.000;0.000;2023-06-10T19:55:40;101207.91;;;25.37;36.19
62976;BME280;49071;0.000;0.000;2023-06-10T19:58:40;101207.16;;;25.35;35.49
62976;BME280;49071;0.000;0.000;2023-06-10T20:01:41;101217.78;;;25.36;35.88
62976;BME280;49071;0.000;0.000;2023-06-10T20:04:41;101205.78;;;25.29;33.95
62976;BME280;49071;0.000;0.000;2023-06-10T20:07:42;101219.97;;;25.18;33.95
62976;BME280;49071;0.000;0.000;2023-06-10T20:10:42;101210.31;;;25.16;33.15
62976;BME280;49071;0.000;0.000;2023-06-10T20:13:42;101221.13;;;25.14;32.48
62976;BME280;49071;0.000;0.000;2023-06-10T20:16:43;101222.53;;;25.07;32.19
62976;BME280;49071;0.000;0.000;2023-06-10T20:19:43;101228.13;;;25.04;32.55
62976;BME280;49071;0.000;0.000;2023-06-10T20:22:48;101233.38;;;25.06;31.47
62976;BME280;49071;0.000;0.000;2023-06-10T20:25:48;101242.44;;;25.03;31.48
62976;BME280;49071;0.000;0.000;2023-06-10T20:28:48;101232.19;;;25.10;32.37
62976;BME280;49071;0.000;0.000;2023-06-10T20:31:48;101241.59;;;25.03;31.78
62976;BME280;49071;0.000;0.000;2023-06-10T20:34:48;101244.34;;;25.01;31.23
62976;BME280;49071;0.000;0.000;2023-06-10T20:37:48;101245.31;;;25.00;30.83
62976;BME280;49071;0.000;0.000;2023-06-10T20:40:49;101241.91;;;24.98;30.83
62976;BME280;49071;0.000;0.000;2023-06-10T20:43:49;101246.31;;;24.99;31.32
62976;BME280;49071;0.000;0.000;2023-06-10T20:46:49;101243.00;;;24.96;31.01
62976;BME280;49071;0.000;0.000;2023-06-10T20:49:50;101250.78;;;24.86;30.19
62976;BME280;49071;0.000;0.000;2023-06-10T20:52:50;101257.31;;;24.94;31.50
62976;BME280;49071;0.000;0.000;2023-06-10T20:55:51;101256.56;;;24.92;31.23
62976;BME280;49071;0.000;0.000;2023-06-10T20:58:51;101255.94;;;24.89;29.99
62976;BME280;49071;0.000;0.000;2023-06-10T21:01:51;101255.94;;;24.89;30.90
62976;BME280;49071;0.000;0.000;2023-06-10T21:04:51;101255.72;;;24.92;30.60
62976;BME280;49071;0.000;0.000;2023-06-10T21:07:51;101255.72;;;24.92;30.35
62976;BME280;49071;0.000;0.000;2023-06-10T21:10:52;101261.06;;;24.92;30.73
62976;BME280;49071;0.000;0.000;2023-06-10T21:13:52;101265.56;;;24.91;31.22
62976;BME280;49071;0.000;0.000;2023-06-10T21:16:52;101258.28;;;24.93;31.36
